Time;durP1;ratioP1;P1;durP2;ratioP2;P2;SDS_P1;SDS_P2;PMS_P1;PMS_P2;Temp;Humidity;BMP_temperature;BMP_pressure;BME280_temperature;BME280_humidity;BME280_pressure;Samples;Min_cycle;Max_cycle;Signal;HPM_P1;HPM_P2
2022/05/29 00:00:43;;;;;;;1024.97;709.17;;;9.60;82.40;;;;;;5024292;28;20496;-70
2022/05/29 00:03:09;;;;;;;1039.47;713.90;;;9.60;81.40;;;;;;5036856;28;20097;-70
2022/05/29 00:05:39;;;;;;;1125.97;747.30;;;9.50;81.00;;;;;;5024458;28;20045;-70
2022/05/29 00:08:06;;;;;;;1122.85;735.70;;;9.50;80.60;;;;;;5028238;28;20073;-70
2022/05/29 00:10:36;;;;;;;1085.18;762.00;;;9.50;80.10;;;;;;5022691;28;20148;-70
2022/05/29 00:13:02;;;;;;;1195.53;775.00;;;9.40;79.50;;;;;;5026675;28;20046;-70
2022/05/29 00:15:28;;;;;;;1112.50;750.35;;;9.40;79.30;;;;;;5011718;28;20041;-70
2022/05/29 00:17:53;;;;;;;1158.53;772.77;;;9.30;78.80;;;;;;5011632;28;20087;-70
2022/05/29 00:20:19;;;;;;;1078.13;773.23;;;9.20;78.40;;;;;;5009690;28;20045;-70
2022/05/29 00:22:45;;;;;;;1089.33;802.60;;;9.20;78.20;;;;;;5026444;28;20060;-70
2022/05/29 00:25:11;;;;;;;1051.13;779.20;;;9.10;78.00;;;;;;5011733;28;20405;-70
2022/05/29 00:27:37;;;;;;;1063.25;808.17;;;9.00;78.20;;;;;;5007789;28;20358;-70
2022/05/29 00:30:06;;;;;;;1255.15;860.95;;;9.00;78.10;;;;;;5040779;28;20129;-70
2022/05/29 00:32:31;;;;;;;1076.68;799.90;;;8.90;78.10;;;;;;5027148;28;20046;-70
2022/05/29 00:34:57;;;;;;;1085.00;837.10;;;8.80;77.90;;;;;;4994712;28;20033;-70
2022/05/29 00:37:23;;;;;;;1079.03;758.27;;;8.70;78.00;;;;;;5011627;28;20677;-70
2022/05/29 00:39:50;;;;;;;1122.07;837.40;;;8.60;78.10;;;;;;5010298;28;20093;-68
2022/05/29 00:42:21;;;;;;;1036.75;766.10;;;8.60;78.10;;;;;;5027697;28;20378;-68
2022/05/29 00:44:50;;;;;;;1064.72;839.65;;;8.50;78.20;;;;;;5027476;28;20141;-68
2022/05/29 00:47:19;;;;;;;1175.43;866.25;;;8.40;78.50;;;;;;5034595;28;20120;-68
2022/05/29 00:49:48;;;;;;;1155.88;870.70;;;8.30;78.70;;;;;;5027469;28;20578;-68
2022/05/29 00:52:23;;;;;;;1197.40;904.63;;;8.30;78.70;;;;;;5026646;28;20051;-68
2022/05/29 00:55:13;;;;;;;1216.03;914.93;;;8.40;78.80;;;;;;5027688;28;20376;-68
2022/05/29 00:57:54;;;;;;;1076.35;805.22;;;8.40;79.30;;;;;;5026570;28;20064;-68
2022/05/29 01:00:26;;;;;;;1206.53;880.95;;;8.40;79.40;;;;;;5027386;28;20041;-68
2022/05/29 01:02:54;;;;;;;1158.30;810.83;;;8.50;79.80;;;;;;5010451;28;20042;-68
2022/05/29 01:05:22;;;;;;;1138.60;813.92;;;8.60;80.00;;;;;;5023745;28;20041;-68
2022/05/29 01:07:55;;;;;;;1093.43;813.05;;;8.60;79.80;;;;;;5027247;28;20498;-68
2022/05/29 01:10:28;;;;;;;1011.83;751.42;;;8.70;80.20;;;;;;5009935;28;20041;-68
2022/05/29 01:13:18;;;;;;;1155.57;836.90;;;8.80;80.30;;;;;;5026445;28;20099;-69
2022/05/29 01:16:11;;;;;;;1152.75;829.28;;;8.80;80.40;;;;;;5019967;28;20060;-69
2022/05/29 01:18:57;;;;;;;1092.90;817.78;;;8.80;80.40;;;;;;5025603;28;20049;-69
2022/05/29 01:21:41;;;;;;;1055.85;808.72;;;8.90;80.40;;;;;;5024914;28;20045;-68
2022/05/29 01:24:44;;;;;;;1132.43;785.55;;;8.90;80.40;;;;;;5023922;28;20107;-68
2022/05/29 01:27:28;;;;;;;1091.53;785.85;;;9.00;80.50;;;;;;5024223;28;20061;-68
2022/05/29 01:30:13;;;;;;;1036.95;737.13;;;9.00;80.70;;;;;;5030093;28;20064;-68
2022/05/29 01:33:04;;;;;;;1079.35;775.30;;;9.00;80.80;;;;;;5023674;28;20450;-68
2022/05/29 01:35:35;;;;;;;997.30;757.45;;;9.10;81.20;;;;;;5020226;28;20057;-68
2022/05/29 01:38:31;;;;;;;1037.53;714.95;;;9.10;81.20;;;;;;5019149;28;20042;-68
2022/05/29 01:41:21;;;;;;;1014.65;717.47;;;9.10;81.40;;;;;;5025963;28;20037;-68
2022/05/29 01:44:03;;;;;;;996.88;684.67;;;9.20;81.40;;;;;;5010024;28;20644;-68
2022/05/29 01:46:32;;;;;;;1083.22;743.33;;;9.20;81.50;;;;;;5026649;28;20437;-68
2022/05/29 01:49:16;;;;;;;984.05;679.70;;;9.30;81.60;;;;;;5025744;28;20041;-69
2022/05/29 01:51:59;;;;;;;976.38;629.97;;;9.40;81.50;;;;;;5009322;28;20045;-69
2022/05/29 01:54:57;;;;;;;1007.90;681.15;;;9.40;81.20;;;;;;5024650;28;20057;-68
2022/05/29 01:57:29;;;;;;;1102.00;753.80;;;9.50;80.60;;;;;;5026274;28;20103;-69
2022/05/29 02:00:16;;;;;;;1054.85;698.45;;;9.60;80.40;;;;;;5024985;28;20069;-69
2022/05/29 02:02:49;;;;;;;1126.18;754.15;;;9.60;79.90;;;;;;5025871;28;20131;-69
2022/05/29 02:05:23;;;;;;;1176.60;782.45;;;9.60;79.50;;;;;;5001243;28;20045;-69
2022/05/29 02:07:55;;;;;;;1116.07;751.10;;;9.60;79.10;;;;;;5007818;28;20051;-69
2022/05/29 02:10:41;;;;;;;1038.43;723.47;;;9.50;78.80;;;;;;5024989;28;20061;-69
2022/05/29 02:13:06;;;;;;;;;;;9.50;78.80;;;;;;5025750;28;20049;-69
2022/05/29 02:15:48;;;;;;;1245.43;866.97;;;9.50;78.30;;;;;;5038522;28;20467;-69
2022/05/29 02:18:23;;;;;;;1079.80;774.80;;;9.50;78.90;;;;;;5014482;28;20037;-69
2022/05/29 02:20:55;;;;;;;1143.55;788.95;;;9.40;78.80;;;;;;5019173;28;20493;-69
2022/05/29 02:23:44;;;;;;;1157.22;768.53;;;9.40;78.90;;;;;;5025113;28;20076;-69
2022/05/29 02:26:27;;;;;;;1161.43;816.65;;;9.40;79.00;;;;;;5026087;28;20406;-69
2022/05/29 02:28:59;;;;;;;1110.40;761.65;;;9.30;79.10;;;;;;5006020;28;20444;-69
2022/05/29 02:31:39;;;;;;;1004.67;715.40;;;9.30;79.10;;;;;;5024511;28;20041;-69
2022/05/29 02:34:21;;;;;;;1129.13;697.38;;;9.30;79.30;;;;;;5024628;28;20045;-69
2022/05/29 02:37:08;;;;;;;1076.72;766.25;;;9.30;79.40;;;;;;5025598;28;20092;-69
2022/05/29 02:40:01;;;;;;;1051.60;717.92;;;9.30;79.50;;;;;;5025184;28;20406;-69
2022/05/29 02:42:43;;;;;;;1113.45;775.53;;;9.30;79.60;;;;;;5021124;28;20044;-69
2022/05/29 02:45:28;;;;;;;1137.57;764.38;;;9.30;79.70;;;;;;5009414;28;20037;-69
2022/05/29 02:48:20;;;;;;;1160.22;762.08;;;9.30;79.80;;;;;;5025474;28;20145;-69
2022/05/29 02:51:23;;;;;;;1138.13;783.28;;;9.30;79.70;;;;;;5024367;28;20029;-69
2022/05/29 02:53:49;;;;;;;1087.95;720.78;;;9.40;79.80;;;;;;5032141;28;20048;-68
2022/05/29 02:56:15;;;;;;;933.40;591.90;;;9.40;79.90;;;;;;5008476;28;20041;-68
2022/05/29 02:58:46;;;;;;;1052.78;692.40;;;9.40;79.60;;;;;;5005576;28;20460;-69
2022/05/29 03:01:48;;;;;;;1029.93;698.38;;;9.50;79.80;;;;;;5020888;28;20060;-69
2022/05/29 03:04:33;;;;;;;1210.43;798.00;;;9.50;79.80;;;;;;5003279;28;20041;-68
2022/05/29 03:07:12;;;;;;;1095.78;733.95;;;9.50;80.00;;;;;;5008534;28;20134;-68
2022/05/29 03:09:58;;;;;;;1063.00;735.22;;;9.50;80.00;;;;;;5007564;28;20449;-68
2022/05/29 03:12:49;;;;;;;936.03;657.25;;;9.50;80.30;;;;;;5024154;28;20041;-68
2022/05/29 03:15:51;;;;;;;1215.45;800.17;;;9.50;80.40;;;;;;5007855;28;20280;-68
2022/05/29 03:18:35;;;;;;;1039.93;771.80;;;9.50;80.70;;;;;;5023780;28;20091;-68
2022/05/29 03:21:16;;;;;;;1101.55;765.85;;;9.50;81.10;;;;;;5019518;28;20052;-68
2022/05/29 03:24:13;;;;;;;905.05;630.58;;;9.50;81.10;;;;;;5018626;28;20127;-68
2022/05/29 03:27:06;;;;;;;947.63;689.80;;;9.50;81.40;;;;;;5030975;28;20517;-69
2022/05/29 03:30:01;;;;;;;930.28;641.20;;;9.60;81.50;;;;;;5004288;28;20456;-69
2022/05/29 03:32:30;;;;;;;1218.18;762.78;;;9.60;82.10;;;;;;5005238;28;20049;-70
2022/05/29 03:34:56;;;;;;;941.00;631.10;;;9.60;82.50;;;;;;5024265;28;20549;-70
2022/05/29 03:37:21;;;;;;;994.63;671.03;;;9.50;83.10;;;;;;5024694;28;20124;-70
2022/05/29 03:39:49;;;;;;;1005.93;698.70;;;9.50;83.10;;;;;;4988858;28;20509;-70
2022/05/29 03:42:16;;;;;;;1104.90;695.70;;;9.50;83.60;;;;;;5026505;28;20044;-70
2022/05/29 03:44:45;;;;;;;1073.30;712.20;;;9.40;83.70;;;;;;5011720;28;20088;-69
2022/05/29 03:47:11;;;;;;;1018.47;649.25;;;9.40;83.80;;;;;;4995164;28;20034;-69
2022/05/29 03:49:42;;;;;;;1064.60;680.63;;;9.50;83.70;;;;;;5028441;28;20057;-69
2022/05/29 03:52:08;;;;;;;1070.80;648.97;;;9.40;83.50;;;;;;5027390;28;20301;-69
2022/05/29 03:54:33;;;;;;;1024.85;665.30;;;9.50;83.40;;;;;;5003161;28;20050;-69
2022/05/29 03:56:59;;;;;;;979.30;600.13;;;9.40;82.80;;;;;;5026422;28;20498;-69
2022/05/29 03:59:25;;;;;;;1002.53;659.80;;;9.40;82.30;;;;;;4979263;28;20034;-69
2022/05/29 04:01:53;;;;;;;1087.80;748.50;;;9.40;82.00;;;;;;5027358;28;20091;-69
2022/05/29 04:04:19;;;;;;;876.55;543.30;;;9.40;82.40;;;;;;5025888;28;20055;-69
2022/05/29 04:06:45;;;;;;;1148.37;711.53;;;9.30;82.40;;;;;;5028123;28;20049;-69
2022/05/29 04:12:04;;;;;;;1114.78;758.97;;;9.30;82.80;;;;;;5027113;28;20049;-69
2022/05/29 04:14:31;;;;;;;;;;;9.20;83.00;;;;;;5028379;28;20041;-69
2022/05/29 04:16:57;;;;;;;1103.30;828.72;;;9.20;83.10;;;;;;5028409;28;19921;-69
2022/05/29 04:19:23;;;;;;;1176.47;790.33;;;9.10;83.40;;;;;;5027518;28;20048;-69
2022/05/29 04:21:49;;;;;;;1218.10;793.03;;;9.10;83.90;;;;;;5018210;28;20045;-69
2022/05/29 04:24:21;;;;;;;1167.45;799.72;;;9.20;84.20;;;;;;5027112;28;20417;-69
2022/05/29 04:26:48;;;;;;;1047.13;708.25;;;9.20;84.20;;;;;;5011846;28;20037;-69
2022/05/29 04:29:15;;;;;;;1111.40;740.58;;;9.20;84.40;;;;;;5010442;28;20037;-69
2022/05/29 04:34:26;;;;;;;1055.40;708.13;;;9.30;84.50;;;;;;5027124;28;20045;-69
2022/05/29 04:36:52;;;;;;;1048.57;662.63;;;9.30;84.30;;;;;;5027694;28;20132;-69
2022/05/29 04:39:17;;;;;;;1086.33;745.33;;;9.40;84.50;;;;;;5010090;28;20468;-69
2022/05/29 04:41:43;;;;;;;1049.03;658.37;;;9.40;84.50;;;;;;5027942;28;20477;-69
2022/05/29 04:44:09;;;;;;;1112.93;731.20;;;9.50;84.50;;;;;;5027589;28;20627;-69
2022/05/29 04:46:34;;;;;;;1120.20;698.47;;;9.50;84.40;;;;;;5027537;28;20460;-69
2022/05/29 04:49:00;;;;;;;947.00;643.03;;;9.60;84.30;;;;;;5010498;28;20041;-69
2022/05/29 04:51:26;;;;;;;1004.10;636.87;;;9.60;84.30;;;;;;5011051;28;20159;-69
2022/05/29 04:53:52;;;;;;;1058.07;666.87;;;9.60;84.30;;;;;;5025259;28;20046;-69
2022/05/29 04:56:17;;;;;;;986.27;585.83;;;9.70;84.30;;;;;;5007495;28;20096;-69
2022/05/29 04:58:43;;;;;;;1050.87;615.57;;;9.70;84.20;;;;;;5007141;28;20405;-69
2022/05/29 05:01:10;;;;;;;1032.77;657.67;;;9.80;84.20;;;;;;5011373;28;20037;-69
2022/05/29 05:03:35;;;;;;;836.85;594.50;;;9.80;84.10;;;;;;5026847;28;20116;-69
2022/05/29 05:06:01;;;;;;;996.73;611.53;;;9.90;84.10;;;;;;5027638;28;20064;-69
2022/05/29 05:08:27;;;;;;;888.90;577.87;;;9.90;83.90;;;;;;5010261;28;20072;-69
2022/05/29 05:10:53;;;;;;;1020.97;576.37;;;9.90;83.80;;;;;;5024752;28;20037;-69
2022/05/29 05:13:18;;;;;;;1054.27;659.33;;;9.90;83.60;;;;;;5025691;28;20108;-69
2022/05/29 05:15:44;;;;;;;903.70;531.20;;;10.00;83.60;;;;;;5010931;28;20528;-69
2022/05/29 05:18:10;;;;;;;918.83;592.77;;;10.00;83.50;;;;;;5026207;28;20029;-69
2022/05/29 05:20:37;;;;;;;963.20;607.80;;;10.00;83.30;;;;;;5010679;28;20033;-69
2022/05/29 05:23:03;;;;;;;999.15;669.15;;;10.00;83.20;;;;;;5027123;28;20449;-70
2022/05/29 05:25:28;;;;;;;967.20;635.23;;;10.10;83.00;;;;;;5027649;28;20041;-70
2022/05/29 05:27:54;;;;;;;1019.20;638.47;;;10.10;81.80;;;;;;5026474;28;20033;-68
2022/05/29 05:30:20;;;;;;;986.23;607.93;;;10.10;81.60;;;;;;5010191;28;20474;-68
2022/05/29 05:32:46;;;;;;;911.05;614.22;;;10.10;81.50;;;;;;5026156;28;20640;-68
2022/05/29 05:35:12;;;;;;;1074.53;675.13;;;10.20;81.30;;;;;;5027006;28;20033;-68
2022/05/29 05:37:39;;;;;;;990.37;650.70;;;10.20;81.40;;;;;;5002530;28;20455;-68
2022/05/29 05:40:08;;;;;;;951.17;629.53;;;10.20;80.90;;;;;;5009750;28;20072;-68
2022/05/29 05:42:34;;;;;;;1099.50;706.65;;;10.20;80.80;;;;;;5025912;28;20083;-68
2022/05/29 05:45:00;;;;;;;1040.33;650.10;;;10.20;80.40;;;;;;5026529;28;20045;-68
2022/05/29 05:47:26;;;;;;;1118.87;700.90;;;10.20;80.60;;;;;;5025695;28;20419;-68
2022/05/29 05:49:52;;;;;;;1066.13;649.43;;;10.20;80.20;;;;;;5009494;28;20500;-68
2022/05/29 05:52:18;;;;;;;1070.57;652.10;;;10.30;80.70;;;;;;5025513;28;20516;-68
2022/05/29 05:54:44;;;;;;;1135.50;703.75;;;10.30;80.30;;;;;;5026247;28;20052;-68
2022/05/29 05:57:10;;;;;;;1111.70;644.45;;;10.40;80.20;;;;;;5024002;28;20048;-68
2022/05/29 05:59:38;;;;;;;1108.77;663.13;;;10.50;79.90;;;;;;5025516;28;20037;-68
2022/05/29 06:02:09;;;;;;;1057.85;646.20;;;10.50;79.40;;;;;;5022344;28;20296;-68
2022/05/29 06:04:40;;;;;;;1068.75;646.80;;;10.60;79.20;;;;;;5022379;28;20042;-68
2022/05/29 06:07:06;;;;;;;979.47;591.78;;;10.70;78.40;;;;;;5025727;28;20059;-68
2022/05/29 06:09:33;;;;;;;995.38;647.03;;;10.90;78.60;;;;;;5025255;28;20053;-68
2022/05/29 06:11:59;;;;;;;1047.85;669.55;;;11.00;78.60;;;;;;5025910;28;20230;-68
2022/05/29 06:14:25;;;;;;;1075.00;694.03;;;11.10;78.00;;;;;;5008093;28;20041;-68
2022/05/29 06:16:51;;;;;;;1119.00;648.77;;;11.20;78.10;;;;;;5007793;28;20071;-68
2022/05/29 06:19:18;;;;;;;1095.53;624.80;;;11.30;76.40;;;;;;5023847;28;20045;-68
2022/05/29 06:21:44;;;;;;;1019.92;625.17;;;11.40;75.70;;;;;;5025464;28;20641;-68
2022/05/29 06:24:10;;;;;;;1052.33;643.00;;;11.50;76.00;;;;;;5025967;28;20041;-68
2022/05/29 06:26:35;;;;;;;1092.23;649.30;;;11.60;76.60;;;;;;5009056;28;20087;-69
2022/05/29 06:29:01;;;;;;;1114.43;663.00;;;11.80;76.40;;;;;;5024203;28;20045;-69
2022/05/29 06:31:27;;;;;;;1073.30;638.27;;;11.80;75.30;;;;;;5008442;28;20046;-69
2022/05/29 06:33:52;;;;;;;1148.43;671.03;;;11.90;74.70;;;;;;5009082;28;20038;-69
2022/05/29 06:36:24;;;;;;;1124.33;639.30;;;11.90;73.80;;;;;;5024953;28;20178;-69
2022/05/29 06:38:52;;;;;;;1058.80;627.03;;;11.80;72.70;;;;;;5024503;28;20498;-69
2022/05/29 06:41:20;;;;;;;1045.68;603.63;;;11.70;73.40;;;;;;5025502;28;20045;-69
2022/05/29 06:43:46;;;;;;;1202.20;702.90;;;11.50;72.10;;;;;;5024639;28;20044;-69
2022/05/29 06:46:13;;;;;;;1136.00;656.80;;;11.30;73.30;;;;;;5033014;28;20042;-69
2022/05/29 06:48:41;;;;;;;1099.20;687.17;;;11.20;72.70;;;;;;5003607;28;20041;-69
2022/05/29 06:51:21;;;;;;;1152.45;699.25;;;11.00;72.60;;;;;;5004959;28;20514;-69
2022/05/29 06:53:52;;;;;;;1030.03;590.13;;;11.00;72.70;;;;;;5021428;28;20514;-69
2022/05/29 06:56:19;;;;;;;1165.10;734.83;;;10.90;72.30;;;;;;5009908;28;20048;-69
2022/05/29 06:58:46;;;;;;;1148.30;670.08;;;10.90;73.10;;;;;;5024833;28;20037;-69
2022/05/29 07:06:59;;;;;;;1174.85;689.47;;;11.20;72.70;;;;;;5031128;28;20107;-69
2022/05/29 07:09:33;;;;;;;1129.13;680.80;;;11.40;72.60;;;;;;5009348;28;20060;-69
2022/05/29 07:12:19;;;;;;;1049.15;676.80;;;11.50;71.90;;;;;;5024663;28;20076;-69
2022/05/29 07:14:47;;;;;;;1057.97;643.33;;;11.50;71.80;;;;;;5007313;28;20403;-69
2022/05/29 07:17:12;;;;;;;1124.38;740.17;;;11.50;70.60;;;;;;5024130;28;20049;-69
2022/05/29 07:19:40;;;;;;;1206.50;724.33;;;11.50;70.10;;;;;;5024011;28;20064;-69
2022/05/29 07:22:06;;;;;;;1132.40;700.75;;;11.50;71.10;;;;;;5005102;28;20292;-69
2022/05/29 07:24:35;;;;;;;1121.70;708.93;;;11.60;70.50;;;;;;4987726;28;20069;-69
2022/05/29 07:27:01;;;;;;;1081.20;691.08;;;11.60;70.80;;;;;;5022876;28;20057;-69
2022/05/29 07:29:27;;;;;;;1116.88;713.97;;;11.70;70.30;;;;;;5023048;28;20041;-69
2022/05/29 07:31:54;;;;;;;1104.90;678.97;;;11.70;69.90;;;;;;5007139;28;20038;-69
2022/05/29 07:34:21;;;;;;;1079.22;621.50;;;11.80;69.10;;;;;;5019322;28;20049;-69
2022/05/29 07:36:49;;;;;;;1101.90;695.85;;;11.90;69.20;;;;;;5023937;28;20103;-69
2022/05/29 07:39:16;;;;;;;1052.28;665.80;;;11.90;68.40;;;;;;5007418;28;20469;-69
2022/05/29 07:44:25;;;;;;;1162.80;733.72;;;12.10;69.30;;;;;;5039090;28;20401;-69
2022/05/29 07:46:51;;;;;;;1345.20;777.37;;;12.20;68.60;;;;;;5023334;28;20041;-69
2022/05/29 07:49:17;;;;;;;1187.40;699.90;;;12.30;67.90;;;;;;5006720;28;20041;-69
2022/05/29 07:51:43;;;;;;;1109.57;696.57;;;12.40;68.40;;;;;;5023143;28;20718;-69
2022/05/29 07:54:08;;;;;;;1098.10;682.13;;;12.50;67.40;;;;;;5022865;28;20143;-69
2022/05/29 07:56:35;;;;;;;1172.97;675.33;;;12.50;68.40;;;;;;4991354;28;20037;-69
2022/05/29 07:59:00;;;;;;;1153.30;721.70;;;12.60;68.30;;;;;;5007022;28;20041;-69
2022/05/29 08:01:29;;;;;;;1125.03;696.63;;;12.60;67.60;;;;;;5006805;28;20877;-69
2022/05/29 08:03:55;;;;;;;1107.00;681.50;;;12.70;67.90;;;;;;5007709;28;20040;-69
2022/05/29 08:06:21;;;;;;;1025.23;612.43;;;12.70;67.10;;;;;;5006999;28;20292;-69
2022/05/29 08:08:49;;;;;;;1088.37;665.67;;;12.80;66.70;;;;;;5005757;28;20045;-69
2022/05/29 08:11:17;;;;;;;1032.33;706.30;;;12.90;66.20;;;;;;5022972;28;20280;-69
2022/05/29 08:13:43;;;;;;;1025.17;678.50;;;13.00;65.00;;;;;;5040181;28;20353;-69
2022/05/29 08:16:09;;;;;;;1070.60;683.80;;;13.10;64.70;;;;;;5024557;28;20284;-69
2022/05/29 08:18:38;;;;;;;1148.13;704.07;;;13.10;64.30;;;;;;5023130;28;20385;-69
2022/05/29 08:21:04;;;;;;;1049.67;632.70;;;13.10;63.90;;;;;;5006954;28;20839;-69
2022/05/29 08:23:29;;;;;;;1059.07;698.67;;;13.10;63.20;;;;;;5023002;28;20616;-69
2022/05/29 08:31:43;;;;;;;1050.30;717.77;;;13.50;63.80;;;;;;4986779;28;20285;-69
2022/05/29 08:34:09;;;;;;;996.87;645.27;;;13.40;62.00;;;;;;4996591;28;20338;-69
2022/05/29 08:36:36;;;;;;;1117.93;686.23;;;13.40;62.40;;;;;;5008150;28;20038;-69
2022/05/29 08:39:01;;;;;;;1054.47;680.20;;;13.40;63.20;;;;;;5007086;28;20440;-69
2022/05/29 08:41:46;;;;;;;1041.63;702.20;;;13.30;62.60;;;;;;5007257;28;20292;-69
2022/05/29 08:44:32;;;;;;;1085.88;637.47;;;13.20;62.10;;;;;;5008566;28;20029;-69
2022/05/29 08:47:01;;;;;;;;;;;13.10;62.90;;;;;;5024084;28;20037;-69
2022/05/29 08:49:42;;;;;;;1055.73;753.83;;;13.00;63.20;;;;;;5038546;28;19925;-69
2022/05/29 08:52:11;;;;;;;1003.60;684.97;;;13.00;63.80;;;;;;5007839;28;20383;-69
2022/05/29 08:54:47;;;;;;;1039.27;647.63;;;12.90;64.20;;;;;;5019568;28;20389;-69
2022/05/29 08:57:16;;;;;;;948.03;653.43;;;12.90;64.60;;;;;;5024355;28;20776;-69
2022/05/29 08:59:57;;;;;;;1000.27;654.87;;;12.90;64.80;;;;;;5020647;28;20284;-69
2022/05/29 09:02:35;;;;;;;1006.37;637.17;;;12.90;65.10;;;;;;5020133;28;20324;-69
2022/05/29 09:05:09;;;;;;;962.43;640.87;;;12.80;65.40;;;;;;5008907;28;20360;-69
2022/05/29 09:07:38;;;;;;;917.40;574.33;;;12.80;66.00;;;;;;5026799;28;20290;-69
2022/05/29 09:10:27;;;;;;;1043.23;671.47;;;12.60;66.10;;;;;;5025459;28;20316;-69
2022/05/29 09:12:54;;;;;;;1057.47;680.10;;;12.50;66.90;;;;;;5016389;28;20343;-69
2022/05/29 09:15:38;;;;;;;1091.13;692.27;;;12.50;66.80;;;;;;5022482;28;20359;-69
2022/05/29 09:18:32;;;;;;;1033.73;669.27;;;12.60;67.00;;;;;;5022504;28;20383;-69
2022/05/29 09:21:21;;;;;;;1034.90;697.87;;;12.70;65.90;;;;;;5036173;28;20377;-69
2022/05/29 09:24:05;;;;;;;1023.70;655.67;;;12.90;65.30;;;;;;5004301;28;20308;-69
2022/05/29 09:26:37;;;;;;;1066.87;685.17;;;13.10;65.90;;;;;;5022562;28;21111;-69
2022/05/29 09:29:05;;;;;;;1074.77;698.57;;;13.40;65.50;;;;;;5019293;28;20586;-69
2022/05/29 09:31:31;;;;;;;1050.90;671.87;;;13.60;64.70;;;;;;5001425;28;20296;-69
2022/05/29 09:33:59;;;;;;;1067.83;735.00;;;13.60;63.40;;;;;;5032019;28;20869;-69
2022/05/29 09:36:39;;;;;;;957.47;701.63;;;13.40;62.00;;;;;;5018038;28;20284;-69
2022/05/29 09:39:14;;;;;;;1072.83;729.10;;;13.20;62.00;;;;;;5021060;28;20288;-69
2022/05/29 09:42:25;;;;;;;1084.05;692.72;;;12.90;62.90;;;;;;5016704;28;20375;-69
2022/05/29 09:45:20;;;;;;;1090.73;739.27;;;12.70;64.10;;;;;;5015578;28;20494;-69
2022/05/29 09:50:42;;;;;;;1092.47;763.85;;;12.50;63.50;;;;;;5026326;28;20910;-69
2022/05/29 09:53:15;;;;;;;984.27;724.20;;;12.60;63.40;;;;;;5025445;28;20064;-69
2022/05/29 09:55:52;;;;;;;1104.97;743.70;;;12.70;62.50;;;;;;5022211;28;20287;-69
2022/05/29 09:58:25;;;;;;;1009.77;696.00;;;12.80;62.10;;;;;;5025220;28;20844;-69
2022/05/29 10:01:04;;;;;;;1057.50;718.13;;;13.00;61.70;;;;;;5026128;28;20860;-69
2022/05/29 10:03:33;;;;;;;1031.20;727.07;;;13.10;61.80;;;;;;5025700;28;20284;-69
2022/05/29 10:06:33;;;;;;;1044.53;693.80;;;13.30;62.30;;;;;;5024257;28;20319;-69
2022/05/29 10:09:18;;;;;;;940.40;618.33;;;13.50;61.00;;;;;;5015508;28;20319;-69
2022/05/29 10:11:50;;;;;;;1046.70;723.47;;;13.60;61.60;;;;;;5035421;28;20745;-69
2022/05/29 10:14:22;;;;;;;916.83;573.00;;;13.40;62.10;;;;;;5037833;28;20132;-69
2022/05/29 10:16:49;;;;;;;858.90;528.53;;;13.10;65.20;;;;;;5023376;28;20383;-69
2022/05/29 10:19:35;;;;;;;906.57;619.73;;;12.80;67.00;;;;;;5022758;28;20838;-69
2022/05/29 10:22:08;;;;;;;971.53;643.93;;;12.60;67.40;;;;;;5033417;28;20417;-69
2022/05/29 10:24:37;;;;;;;956.57;642.07;;;12.50;66.70;;;;;;5023682;28;20849;-69
2022/05/29 10:27:29;;;;;;;951.00;634.17;;;12.50;67.10;;;;;;5024032;28;20291;-69
2022/05/29 10:29:59;;;;;;;978.73;733.00;;;12.70;66.70;;;;;;5014631;28;20366;-69
2022/05/29 10:32:31;;;;;;;1030.97;715.67;;;12.90;65.80;;;;;;5006854;28;20394;-69
2022/05/29 10:35:21;;;;;;;1002.40;716.17;;;13.00;65.00;;;;;;5021287;28;20293;-69
2022/05/29 10:37:48;;;;;;;1026.10;752.30;;;13.30;63.90;;;;;;5020173;28;20276;-69
2022/05/29 10:40:26;;;;;;;1004.93;724.63;;;13.50;62.70;;;;;;5022419;28;20292;-69
2022/05/29 10:42:54;;;;;;;1178.87;741.43;;;13.60;61.10;;;;;;5024433;28;20295;-69
2022/05/29 10:45:31;;;;;;;974.13;680.33;;;13.80;60.50;;;;;;5008409;28;20298;-69
2022/05/29 10:48:02;;;;;;;1024.97;717.33;;;13.90;60.80;;;;;;5019362;28;20508;-69
2022/05/29 10:51:01;;;;;;;1033.87;736.40;;;14.20;60.60;;;;;;5024567;28;20411;-69
2022/05/29 10:53:45;;;;;;;1116.80;794.20;;;14.50;59.90;;;;;;5020319;28;20310;-69
2022/05/29 10:56:29;;;;;;;1060.47;742.97;;;14.70;59.90;;;;;;5026382;28;20936;-69
2022/05/29 10:59:19;;;;;;;1004.90;713.27;;;14.80;59.30;;;;;;5036972;28;20419;-69
2022/05/29 11:04:56;;;;;;;996.88;728.08;;;14.50;58.80;;;;;;5023908;28;20811;-69
2022/05/29 11:07:35;;;;;;;1058.43;680.27;;;14.30;59.40;;;;;;5015166;28;20037;-69
2022/05/29 11:10:07;;;;;;;1026.43;735.13;;;14.20;58.70;;;;;;5033941;28;20764;-69
2022/05/29 11:12:55;;;;;;;1084.50;765.00;;;14.00;59.60;;;;;;5022515;28;20393;-69
2022/05/29 11:15:45;;;;;;;991.23;665.20;;;13.80;60.30;;;;;;5019224;28;20835;-69
2022/05/29 11:18:37;;;;;;;1043.63;698.17;;;13.50;61.00;;;;;;5026592;28;20848;-69
2022/05/29 11:21:11;;;;;;;991.63;692.63;;;13.10;63.20;;;;;;5007204;28;20292;-69
2022/05/29 11:23:49;;;;;;;1074.35;693.75;;;13.10;63.90;;;;;;5012359;28;20419;-69
2022/05/29 11:26:42;;;;;;;1004.10;686.00;;;13.00;64.20;;;;;;5011495;28;20056;-69
2022/05/29 11:29:14;;;;;;;1026.07;718.97;;;13.00;64.10;;;;;;5019845;28;20284;-69
2022/05/29 11:31:52;;;;;;;1023.97;683.20;;;12.90;63.00;;;;;;5019600;28;20644;-69
2022/05/29 11:34:35;;;;;;;1012.27;725.47;;;13.10;61.80;;;;;;5018514;28;20339;-69
2022/05/29 11:37:20;;;;;;;1019.77;718.77;;;13.10;61.80;;;;;;5029503;28;20277;-69
2022/05/29 11:39:50;;;;;;;1044.63;747.37;;;13.30;61.10;;;;;;5030294;28;20667;-69
2022/05/29 11:42:36;;;;;;;1084.90;772.97;;;13.50;60.70;;;;;;5013495;28;20342;-69
2022/05/29 11:45:13;;;;;;;1032.13;759.83;;;13.80;60.20;;;;;;5000408;28;20625;-69
2022/05/29 11:51:25;;;;;;;1030.33;778.90;;;14.50;58.80;;;;;;5026939;28;20281;-69
2022/05/29 11:54:07;;;;;;;982.03;707.87;;;14.70;58.20;;;;;;5026618;28;20898;-69
2022/05/29 11:56:49;;;;;;;1073.37;798.10;;;15.00;57.90;;;;;;5015113;28;20284;-69
2022/05/29 11:59:52;;;;;;;1088.93;784.37;;;15.10;57.40;;;;;;5003310;28;20292;-69
2022/05/29 12:02:41;;;;;;;1103.43;751.87;;;15.10;56.30;;;;;;5020857;28;20268;-69
2022/05/29 12:05:36;;;;;;;1053.93;808.43;;;14.90;56.10;;;;;;5022463;28;20284;-69
2022/05/29 12:08:16;;;;;;;1121.25;786.65;;;14.90;55.10;;;;;;5036727;28;20383;-69
2022/05/29 12:11:18;;;;;;;1086.90;733.47;;;14.60;55.10;;;;;;5038671;28;20367;-69
2022/05/29 12:14:05;;;;;;;1072.87;717.57;;;14.40;56.50;;;;;;4998837;28;20312;-69
2022/05/29 12:16:34;;;;;;;1095.93;703.07;;;13.90;58.60;;;;;;5036462;28;20300;-69
2022/05/29 12:19:06;;;;;;;1034.70;708.57;;;13.50;61.00;;;;;;5010705;28;20648;-69
2022/05/29 12:21:43;;;;;;;1018.83;664.73;;;13.20;62.20;;;;;;5034906;28;20785;-68
2022/05/29 12:24:15;;;;;;;1079.70;741.77;;;13.20;62.90;;;;;;5010521;28;20280;-68
2022/05/29 12:26:47;;;;;;;1048.10;728.47;;;13.20;62.30;;;;;;5026881;28;20692;-68
2022/05/29 12:29:38;;;;;;;1036.80;737.73;;;13.30;61.90;;;;;;5026354;28;20673;-68
2022/05/29 12:32:23;;;;;;;1002.47;720.77;;;13.50;61.30;;;;;;5025914;28;20754;-68
2022/05/29 12:34:58;;;;;;;1078.35;815.45;;;13.60;59.90;;;;;;5020783;28;20319;-68
2022/05/29 12:37:54;;;;;;;1094.68;831.55;;;13.70;59.30;;;;;;5011092;28;20421;-68
2022/05/29 12:40:42;;;;;;;1042.43;711.73;;;13.70;58.00;;;;;;5010298;28;20041;-68
2022/05/29 12:43:26;;;;;;;1089.77;765.77;;;13.90;58.00;;;;;;5023320;28;20284;-68
2022/05/29 12:45:54;;;;;;;1059.57;797.47;;;14.00;58.80;;;;;;5024966;28;20280;-68
2022/05/29 12:48:44;;;;;;;1070.10;755.10;;;14.10;57.70;;;;;;5024599;28;20688;-68
2022/05/29 12:51:35;;;;;;;1082.53;813.50;;;14.20;57.10;;;;;;5019497;28;20284;-68
2022/05/29 12:54:22;;;;;;;1025.77;761.87;;;14.20;57.50;;;;;;5023261;28;20381;-68
2022/05/29 12:57:09;;;;;;;1078.13;790.07;;;14.40;57.60;;;;;;5023971;28;20739;-69
2022/05/29 12:59:59;;;;;;;1005.43;751.47;;;14.50;56.70;;;;;;5021096;28;20342;-68
2022/05/29 13:02:55;;;;;;;1017.53;750.23;;;14.40;56.00;;;;;;5005798;28;20303;-68
2022/05/29 13:05:33;;;;;;;1084.30;745.33;;;14.30;57.30;;;;;;5023622;28;20284;-68
2022/05/29 13:08:18;;;;;;;1097.93;755.00;;;14.20;56.50;;;;;;5023665;28;20839;-69
2022/05/29 13:10:50;;;;;;;1101.07;791.00;;;14.20;56.90;;;;;;5024293;28;20774;-68